createdAt,value
2023-05-19T00:04:14.781Z,1.10
2023-05-19T00:09:17.103Z,1.10
2023-05-19T00:14:19.380Z,0.88
2023-05-19T00:19:22.622Z,1.20
2023-05-19T00:24:24.988Z,1.02
2023-05-19T00:29:27.121Z,1.00
2023-05-19T00:34:29.203Z,1.20
2023-05-19T00:39:31.287Z,1.00
2023-05-19T00:44:33.562Z,1.20
2023-05-19T00:49:37.246Z,1.35
2023-05-19T00:54:39.305Z,1.27
2023-05-19T00:59:41.469Z,1.20
2023-05-19T01:04:45.072Z,0.90
2023-05-19T01:09:47.588Z,0.82
2023-05-19T01:14:49.722Z,0.75
2023-05-19T01:20:06.648Z,0.60
2023-05-19T01:25:11.364Z,0.65
2023-05-19T01:30:30.825Z,0.88
2023-05-19T01:35:39.016Z,1.60
2023-05-19T01:40:42.443Z,1.50
2023-05-19T01:45:45.474Z,1.70
2023-05-19T01:50:47.816Z,1.98
2023-05-19T01:55:54.893Z,2.15
2023-05-19T02:01:24.385Z,2.08
2023-05-19T02:06:54.157Z,2.00
2023-05-19T02:12:03.078Z,2.10
2023-05-19T02:17:06.500Z,1.80
2023-05-19T02:22:09.007Z,2.03
2023-05-19T02:27:11.111Z,2.20
2023-05-19T02:32:13.682Z,1.77
2023-05-19T02:37:16.354Z,2.30
2023-05-19T02:42:18.550Z,1.50
2023-05-19T02:47:20.668Z,1.80
2023-05-19T02:52:22.877Z,1.98
2023-05-19T02:57:26.814Z,1.92
2023-05-19T03:02:29.149Z,1.80
2023-05-19T03:07:31.398Z,2.03
2023-05-19T03:12:33.882Z,1.75
2023-05-19T03:17:36.518Z,2.15
2023-05-19T03:22:38.729Z,2.33
2023-05-19T03:32:42.955Z,2.25
2023-05-19T03:37:45.582Z,2.20
2023-05-19T03:42:48.708Z,2.60
2023-05-19T03:47:51.822Z,2.60
2023-05-19T03:53:09.129Z,2.80
2023-05-19T03:58:16.123Z,2.83
2023-05-19T04:03:18.408Z,2.97
2023-05-19T04:08:20.600Z,2.97
2023-05-19T04:13:22.660Z,3.30
2023-05-19T04:18:26.331Z,3.38
2023-05-19T04:23:29.613Z,3.63
2023-05-19T04:28:32.183Z,3.60
2023-05-19T04:33:34.353Z,3.92
2023-05-19T04:38:40.198Z,4.00
2023-05-19T04:43:44.869Z,3.65
2023-05-19T04:48:48.613Z,4.03
2023-05-19T04:53:51.739Z,3.60
2023-05-19T04:58:55.291Z,3.90
2023-05-19T05:03:59.268Z,4.03
2023-05-19T05:09:03.843Z,3.60
2023-05-19T05:14:07.247Z,4.05
2023-05-19T05:19:09.738Z,3.58
2023-05-19T05:24:13.565Z,4.05
2023-05-19T05:29:20.237Z,4.05
2023-05-19T05:34:22.418Z,4.60
2023-05-19T05:39:25.197Z,4.80
2023-05-19T05:44:27.477Z,4.43
2023-05-19T05:49:31.323Z,4.60
2023-05-19T05:54:34.075Z,5.18
2023-05-19T05:59:36.283Z,5.07
2023-05-19T06:04:38.511Z,5.55
2023-05-19T06:09:41.175Z,6.22
2023-05-19T06:14:44.489Z,5.65
2023-05-19T06:19:49.214Z,7.55
2023-05-19T06:24:51.498Z,6.18
2023-05-19T06:29:54.899Z,6.00
2023-05-19T06:34:57.258Z,5.80
2023-05-19T06:40:00.780Z,6.70
2023-05-19T06:45:02.967Z,6.60
2023-05-19T06:50:07.153Z,6.38
2023-05-19T06:55:11.456Z,6.32
2023-05-19T07:00:17.026Z,6.65
2023-05-19T07:05:23.299Z,7.13
2023-05-19T07:10:30.269Z,7.22
2023-05-19T07:15:32.656Z,7.40
2023-05-19T07:20:35.015Z,7.65
2023-05-19T07:25:37.257Z,7.65
2023-05-19T07:30:39.757Z,6.85
2023-05-19T07:35:41.988Z,6.47
2023-05-19T07:40:44.062Z,4.88
2023-05-19T07:45:46.254Z,4.20
2023-05-19T07:50:48.934Z,3.30
2023-05-19T07:55:51.457Z,2.80
2023-05-19T08:00:53.583Z,2.03
2023-05-19T08:05:55.822Z,2.30
2023-05-19T08:10:57.888Z,1.75
2023-05-19T08:16:00.662Z,1.63
2023-05-19T08:21:02.980Z,1.77
2023-05-19T08:26:05.658Z,1.90
2023-05-19T08:31:07.879Z,1.58
2023-05-19T08:36:10.120Z,1.60
2023-05-19T08:41:12.425Z,1.77
2023-05-19T08:46:16.487Z,1.92
2023-05-19T08:51:24.094Z,1.40
2023-05-19T08:56:27.276Z,1.30
2023-05-19T09:01:30.443Z,1.13
2023-05-19T09:06:32.923Z,1.13
2023-05-19T09:11:37.668Z,0.65
2023-05-19T09:16:40.379Z,0.60
2023-05-19T09:21:44.516Z,0.90
2023-05-19T09:26:46.756Z,0.65
2023-05-19T09:32:00.693Z,0.60
2023-05-19T09:37:03.170Z,0.90
2023-05-19T09:42:06.391Z,0.90
2023-05-19T09:47:10.083Z,0.70
2023-05-19T09:52:18.419Z,0.52
2023-05-19T09:57:27.333Z,0.43
2023-05-19T10:02:31.692Z,0.68
2023-05-19T10:07:35.104Z,0.68
2023-05-19T10:12:39.455Z,0.52
2023-05-19T10:17:43.054Z,0.50
2023-05-19T10:22:46.553Z,0.70
2023-05-19T10:28:06.172Z,0.70
2023-05-19T10:33:12.308Z,0.55
2023-05-19T10:38:47.227Z,0.65
2023-05-19T10:44:11.181Z,0.55
2023-05-19T10:49:21.803Z,0.50
2023-05-19T10:59:51.917Z,0.50
2023-05-19T11:04:56.469Z,0.68
2023-05-19T11:09:58.757Z,0.65
2023-05-19T11:15:01.168Z,0.52
2023-05-19T11:20:05.086Z,0.47
2023-05-19T11:25:09.147Z,0.60
2023-05-19T11:30:15.039Z,0.85
2023-05-19T11:35:19.243Z,0.55
2023-05-19T11:40:22.474Z,0.52
2023-05-19T11:45:32.109Z,0.70
2023-05-19T11:50:37.250Z,0.70
2023-05-19T11:55:45.019Z,0.52
2023-05-19T12:00:48.070Z,0.52
2023-05-19T12:05:50.805Z,0.68
2023-05-19T12:10:53.169Z,0.55
2023-05-19T12:16:00.658Z,0.60
2023-05-19T12:21:03.237Z,0.57
2023-05-19T12:26:06.146Z,1.08
2023-05-19T12:31:08.421Z,0.50
2023-05-19T12:36:10.967Z,1.00
2023-05-19T12:41:13.238Z,0.50
2023-05-19T12:46:16.716Z,2.10
2023-05-19T12:51:20.127Z,0.60
2023-05-19T12:56:27.111Z,0.63
2023-05-19T13:01:30.563Z,0.80
2023-05-19T13:06:33.807Z,0.50
2023-05-19T13:11:35.962Z,0.50
2023-05-19T13:16:38.152Z,0.60
2023-05-19T13:21:40.286Z,0.68
2023-05-19T13:26:42.402Z,0.63
2023-05-19T13:31:45.156Z,0.30
2023-05-19T13:36:49.040Z,0.70
2023-05-19T13:41:51.161Z,0.77
2023-05-19T13:46:53.350Z,0.45
2023-05-19T13:51:58.705Z,0.63
2023-05-19T13:57:01.249Z,0.73
2023-05-19T14:02:03.498Z,0.55
2023-05-19T14:07:06.732Z,0.60
2023-05-19T14:12:12.163Z,0.60
2023-05-19T14:17:14.563Z,0.52
2023-05-19T14:22:18.297Z,0.70
2023-05-19T14:27:20.402Z,0.73
2023-05-19T14:32:22.609Z,0.50
2023-05-19T14:37:27.680Z,0.60
2023-05-19T14:42:29.802Z,0.57
2023-05-19T14:47:32.003Z,0.60
2023-05-19T14:52:34.131Z,0.55
2023-05-19T14:57:36.233Z,0.70
2023-05-19T15:02:38.695Z,0.60
2023-05-19T15:07:41.040Z,0.65
2023-05-19T15:12:43.370Z,0.65
2023-05-19T15:17:48.287Z,0.60
2023-05-19T15:22:50.359Z,0.60
2023-05-19T15:27:52.474Z,0.52
2023-05-19T15:32:54.960Z,0.57
2023-05-19T15:37:57.100Z,1.00
2023-05-19T15:43:00.250Z,0.70
2023-05-19T15:48:02.496Z,0.98
2023-05-19T15:53:06.905Z,0.75
2023-05-19T15:58:09.074Z,0.93
2023-05-19T16:03:11.317Z,0.70
2023-05-19T16:08:13.645Z,0.60
2023-05-19T16:13:15.832Z,0.82
2023-05-19T16:28:24.497Z,0.63
2023-05-19T16:33:28.013Z,0.50
2023-05-19T16:38:30.202Z,0.88
2023-05-19T16:43:34.023Z,0.60
2023-05-19T16:48:36.448Z,0.60
2023-05-19T16:53:39.842Z,0.70
2023-05-19T16:58:42.201Z,0.77
2023-05-19T17:03:44.372Z,1.20
2023-05-19T17:08:46.777Z,0.68
2023-05-19T17:13:48.992Z,0.70
2023-05-19T17:23:53.568Z,0.60
2023-05-19T17:28:55.873Z,0.73
2023-05-19T17:33:57.967Z,0.70
2023-05-19T17:39:00.270Z,0.80
2023-05-19T17:44:03.831Z,0.98
2023-05-19T17:49:06.569Z,1.20
2023-05-19T17:54:09.121Z,1.40
2023-05-19T17:59:11.473Z,0.80
2023-05-19T18:04:15.902Z,1.00
2023-05-19T18:09:19.965Z,1.10
2023-05-19T18:14:22.066Z,0.70
2023-05-19T18:19:24.312Z,1.38
2023-05-19T18:24:26.602Z,1.30
2023-05-19T18:29:28.785Z,1.00
2023-05-19T18:34:30.962Z,1.77
2023-05-19T18:39:33.104Z,1.58
2023-05-19T18:44:36.760Z,1.23
2023-05-19T18:49:39.022Z,0.90
2023-05-19T18:54:42.446Z,1.15
2023-05-19T18:59:44.560Z,1.20
2023-05-19T19:04:46.778Z,0.90
2023-05-19T19:09:48.994Z,0.93
2023-05-19T19:14:51.357Z,0.75
2023-05-19T19:19:53.701Z,0.82
2023-05-19T19:24:55.893Z,1.10
2023-05-19T19:35:01.030Z,0.80
2023-05-19T19:40:03.562Z,0.93
2023-05-19T19:45:09.516Z,1.05
2023-05-19T19:50:11.889Z,1.00
2023-05-19T19:55:14.178Z,0.90
2023-05-19T20:00:16.760Z,0.73
2023-05-19T20:05:19.077Z,1.17
2023-05-19T20:10:21.184Z,0.93
2023-05-19T20:15:23.373Z,1.30
2023-05-19T20:25:27.281Z,0.98
2023-05-19T20:30:29.476Z,1.13
2023-05-19T20:35:32.064Z,1.17
2023-05-19T20:40:34.355Z,0.90
2023-05-19T20:45:36.763Z,0.90
2023-05-19T20:50:39.736Z,1.00
2023-05-19T20:55:44.534Z,1.45
2023-05-19T21:00:46.671Z,1.27
2023-05-19T21:05:48.774Z,1.38
2023-05-19T21:15:53.155Z,1.10
2023-05-19T21:25:58.513Z,0.88
2023-05-19T21:31:00.828Z,0.65
2023-05-19T21:36:03.100Z,0.63
2023-05-19T21:46:07.521Z,1.00
2023-05-19T21:51:09.649Z,1.20
2023-05-19T21:56:11.918Z,0.55
2023-05-19T22:01:14.453Z,0.60
2023-05-19T22:06:16.482Z,0.70
2023-05-19T22:16:21.026Z,0.80
2023-05-19T22:21:23.223Z,1.00
2023-05-19T22:26:25.455Z,0.52
2023-05-19T22:31:28.534Z,0.68
2023-05-19T22:36:31.330Z,0.98
2023-05-19T22:41:34.840Z,0.90
2023-05-19T22:46:37.048Z,0.50
2023-05-19T22:51:39.854Z,0.70
2023-05-19T22:56:46.439Z,0.80
2023-05-19T23:01:48.725Z,0.77
2023-05-19T23:06:50.971Z,0.50
2023-05-19T23:11:53.680Z,0.47
2023-05-19T23:16:56.089Z,0.80
2023-05-19T23:21:58.218Z,0.57
2023-05-19T23:32:03.299Z,0.50
2023-05-19T23:37:05.615Z,0.60
2023-05-19T23:42:07.770Z,0.70
2023-05-19T23:47:09.957Z,0.65
2023-05-19T23:57:15.123Z,0.50
